createdAt,value
2018-05-18T00:01:35.841Z,95746.66
2018-05-18T00:04:04.375Z,95746.41
2018-05-18T00:06:33.031Z,95749.00
2018-05-18T00:09:01.584Z,95748.78
2018-05-18T00:11:30.276Z,95749.48
2018-05-18T00:13:58.785Z,95746.58
2018-05-18T00:16:27.329Z,95740.67
2018-05-18T00:18:56.125Z,95743.34
2018-05-18T00:21:24.652Z,95746.38
2018-05-18T00:23:53.206Z,95746.74
2018-05-18T00:26:22.092Z,95750.75
2018-05-18T00:28:50.632Z,95749.46
2018-05-18T00:31:19.168Z,95748.59
2018-05-18T00:33:47.809Z,95746.71
2018-05-18T00:36:16.356Z,95749.74
2018-05-18T00:38:44.877Z,95746.20
2018-05-18T00:41:13.529Z,95745.31
2018-05-18T00:43:42.061Z,95743.59
2018-05-18T00:46:10.601Z,95739.84
2018-05-18T00:48:39.513Z,95736.20
2018-05-18T00:51:08.047Z,95734.46
2018-05-18T00:53:36.606Z,95735.41
2018-05-18T00:56:05.130Z,95733.59
2018-05-18T00:58:33.684Z,95731.56
2018-05-18T01:01:02.251Z,95730.41
2018-05-18T01:03:30.781Z,95731.25
2018-05-18T01:05:59.343Z,95728.34
2018-05-18T01:08:27.905Z,95732.72
2018-05-18T01:10:56.425Z,95732.36
2018-05-18T01:13:24.969Z,95730.53
2018-05-18T01:15:53.562Z,95725.94
2018-05-18T01:18:22.024Z,95727.81
2018-05-18T01:20:50.705Z,95725.69
2018-05-18T01:23:19.271Z,95722.33
2018-05-18T01:25:47.804Z,95720.37
2018-05-18T01:28:16.332Z,95719.22
2018-05-18T01:30:44.876Z,95719.16
2018-05-18T01:33:13.409Z,95720.21
2018-05-18T01:35:42.028Z,95720.00
2018-05-18T01:38:10.569Z,95715.25
2018-05-18T01:40:39.142Z,95717.06
2018-05-18T01:43:07.825Z,95720.42
2018-05-18T01:45:36.363Z,95724.66
2018-05-18T01:48:04.903Z,95722.97
2018-05-18T01:50:33.437Z,95723.95
2018-05-18T01:53:02.052Z,95726.88
2018-05-18T01:55:30.672Z,95726.76
2018-05-18T01:57:59.213Z,95728.52
2018-05-18T02:00:27.749Z,95728.59
2018-05-18T02:02:56.286Z,95731.13
2018-05-18T02:05:24.810Z,95732.19
2018-05-18T02:07:53.606Z,95731.14
2018-05-18T02:10:22.121Z,95732.59
2018-05-18T02:12:50.649Z,95728.25
2018-05-18T02:15:19.343Z,95731.83
2018-05-18T02:17:47.871Z,95729.34
2018-05-18T02:20:16.400Z,95728.88
2018-05-18T02:22:44.916Z,95728.02
2018-05-18T02:25:13.452Z,95727.45
2018-05-18T02:27:41.995Z,95725.24
2018-05-18T02:30:10.538Z,95722.66
2018-05-18T02:32:39.415Z,95722.45
2018-05-18T02:35:07.909Z,95724.13
2018-05-18T02:37:36.448Z,95722.34
2018-05-18T02:40:05.257Z,95718.86
2018-05-18T02:42:33.772Z,95723.05
2018-05-18T02:45:02.301Z,95719.45
2018-05-18T02:47:30.966Z,95724.73
2018-05-18T02:49:59.492Z,95722.18
2018-05-18T02:52:28.068Z,95722.72
2018-05-18T02:54:56.694Z,95725.37
2018-05-18T02:57:25.273Z,95725.26
2018-05-18T02:59:53.788Z,95732.59
2018-05-18T03:02:22.304Z,95732.44
2018-05-18T03:04:51.056Z,95735.02
2018-05-18T03:07:19.571Z,95734.80
2018-05-18T03:09:49.525Z,95741.31
2018-05-18T03:12:18.131Z,95740.08
2018-05-18T03:14:47.566Z,95736.31
2018-05-18T03:17:16.104Z,95733.18
2018-05-18T03:19:44.716Z,95742.33
2018-05-18T03:22:13.252Z,95738.94
2018-05-18T03:24:41.773Z,95738.90
2018-05-18T03:27:10.480Z,95738.83
2018-05-18T03:29:39.019Z,95736.25
2018-05-18T03:32:07.544Z,95740.09
2018-05-18T03:34:36.208Z,95739.89
2018-05-18T03:37:04.757Z,95743.51
2018-05-18T03:39:33.284Z,95742.11
2018-05-18T03:42:03.337Z,95742.70
2018-05-18T03:44:31.885Z,95745.09
2018-05-18T03:47:00.448Z,95744.27
2018-05-18T03:49:29.931Z,95746.75
2018-05-18T03:51:58.464Z,95746.09
2018-05-18T03:54:27.005Z,95744.59
2018-05-18T03:56:55.700Z,95746.50
2018-05-18T03:59:24.234Z,95744.97
2018-05-18T04:02:04.412Z,95748.65
2018-05-18T04:04:45.845Z,95743.48
2018-05-18T04:07:26.305Z,95746.94
2018-05-18T04:09:55.344Z,95749.00
2018-05-18T04:12:23.881Z,95752.58
2018-05-18T04:14:52.425Z,95755.52
2018-05-18T04:17:20.974Z,95759.66
2018-05-18T04:19:49.549Z,95763.09
2018-05-18T04:22:18.707Z,95764.31
2018-05-18T04:24:47.217Z,95763.91
2018-05-18T04:27:16.429Z,95765.66
2018-05-18T04:29:44.971Z,95766.75
2018-05-18T04:32:13.525Z,95766.84
2018-05-18T04:34:42.089Z,95773.58
2018-05-18T04:37:10.636Z,95767.16
2018-05-18T04:39:39.173Z,95771.09
2018-05-18T04:42:07.692Z,95767.70
2018-05-18T04:44:37.316Z,95771.33
2018-05-18T04:47:05.857Z,95764.86
2018-05-18T04:49:34.391Z,95769.97
2018-05-18T04:52:02.945Z,95771.25
2018-05-18T04:54:31.472Z,95770.61
2018-05-18T04:57:00.017Z,95774.17
2018-05-18T04:59:28.543Z,95773.64
2018-05-18T05:01:57.078Z,95774.41
2018-05-18T05:04:25.607Z,95774.47
2018-05-18T05:06:54.540Z,95778.27
2018-05-18T05:09:23.068Z,95776.94
2018-05-18T05:11:51.881Z,95777.67
2018-05-18T05:14:20.429Z,95784.95
2018-05-18T05:16:49.093Z,95787.08
2018-05-18T05:19:17.628Z,95783.09
2018-05-18T05:21:46.168Z,95785.89
2018-05-18T05:24:14.702Z,95787.40
2018-05-18T05:26:43.659Z,95794.38
2018-05-18T05:29:12.173Z,95792.80
2018-05-18T05:31:40.702Z,95792.30
2018-05-18T05:34:09.242Z,95794.39
2018-05-18T05:36:37.847Z,95791.41
2018-05-18T05:39:06.325Z,95788.20
2018-05-18T05:41:34.868Z,95792.22
2018-05-18T05:44:03.749Z,95790.75
2018-05-18T05:46:32.274Z,95790.09
2018-05-18T05:49:01.941Z,95789.56
2018-05-18T05:51:30.490Z,95791.66
2018-05-18T05:53:59.339Z,95789.77
2018-05-18T05:56:27.878Z,95784.66
2018-05-18T05:58:56.514Z,95789.18
2018-05-18T06:01:25.055Z,95790.51
2018-05-18T06:03:54.482Z,95789.38
2018-05-18T06:06:23.012Z,95791.94
2018-05-18T06:08:51.556Z,95791.17
2018-05-18T06:11:20.094Z,95789.95
2018-05-18T06:13:48.741Z,95786.66
2018-05-18T06:16:17.286Z,95790.87
2018-05-18T06:18:45.950Z,95789.98
2018-05-18T06:21:14.476Z,95784.60
2018-05-18T06:23:43.000Z,95784.83
2018-05-18T06:26:12.551Z,95785.72
2018-05-18T06:28:41.154Z,95782.45
2018-05-18T06:31:09.618Z,95784.55
2018-05-18T06:33:38.146Z,95786.84
2018-05-18T06:36:06.749Z,95787.54
2018-05-18T06:38:36.472Z,95780.67
2018-05-18T06:41:04.997Z,95786.73
2018-05-18T06:43:33.556Z,95788.14
2018-05-18T06:46:02.082Z,95788.77
2018-05-18T06:48:31.181Z,95792.77
2018-05-18T06:50:59.786Z,95794.09
2018-05-18T06:53:28.373Z,95797.92
2018-05-18T06:55:56.896Z,95796.69
2018-05-18T06:58:25.450Z,95801.23
2018-05-18T07:00:53.973Z,95799.08
2018-05-18T07:03:22.568Z,95801.30
2018-05-18T07:05:51.064Z,95806.72
2018-05-18T07:08:19.658Z,95801.16
2018-05-18T07:10:48.199Z,95799.14
2018-05-18T07:13:18.087Z,95801.59
2018-05-18T07:15:46.720Z,95802.44
2018-05-18T07:18:15.853Z,95802.61
2018-05-18T07:20:44.381Z,95801.77
2018-05-18T07:23:13.641Z,95801.70
2018-05-18T07:25:42.166Z,95800.75
2018-05-18T07:28:11.440Z,95799.11
2018-05-18T07:30:39.957Z,95796.34
2018-05-18T07:33:09.009Z,95793.66
2018-05-18T07:35:37.528Z,95793.67
2018-05-18T07:38:06.445Z,95787.34
2018-05-18T07:40:35.006Z,95787.44
2018-05-18T07:43:03.925Z,95789.06
2018-05-18T07:45:33.400Z,95789.02
2018-05-18T07:48:03.006Z,95784.03
2018-05-18T07:50:31.540Z,95780.59
2018-05-18T07:53:00.085Z,95784.05
2018-05-18T07:55:28.630Z,95781.81
2018-05-18T07:57:57.589Z,95785.69
2018-05-18T08:00:26.092Z,95782.41
2018-05-18T08:02:55.161Z,95782.98
2018-05-18T08:05:23.699Z,95782.87
2018-05-18T08:07:52.894Z,95788.14
2018-05-18T08:10:21.328Z,95789.20
2018-05-18T08:12:50.428Z,95790.36
2018-05-18T08:15:18.968Z,95794.48
2018-05-18T08:17:48.156Z,95787.95
2018-05-18T08:20:16.684Z,95794.27
2018-05-18T08:22:46.578Z,95793.01
2018-05-18T08:25:15.128Z,95789.80
2018-05-18T08:27:43.706Z,95784.47
2018-05-18T08:30:12.172Z,95780.98
2018-05-18T08:32:40.717Z,95782.67
2018-05-18T08:35:09.253Z,95786.48
2018-05-18T08:37:37.777Z,95787.92
2018-05-18T08:40:06.331Z,95790.77
2018-05-18T08:42:34.855Z,95787.97
2018-05-18T08:45:03.576Z,95786.95
2018-05-18T08:47:32.103Z,95787.38
2018-05-18T08:50:01.499Z,95788.82
2018-05-18T08:52:29.911Z,95786.72
2018-05-18T08:54:58.958Z,95790.25
2018-05-18T08:57:27.497Z,95788.57
2018-05-18T08:59:58.669Z,95783.86
2018-05-18T09:02:27.201Z,95783.69
2018-05-18T09:04:56.349Z,95783.48
2018-05-18T09:07:24.875Z,95788.97
2018-05-18T09:09:54.399Z,95787.77
2018-05-18T09:12:22.917Z,95788.39
2018-05-18T09:14:52.211Z,95789.17
2018-05-18T09:17:20.727Z,95786.70
2018-05-18T09:19:49.972Z,95789.05
2018-05-18T09:22:18.494Z,95783.66
2018-05-18T09:24:47.954Z,95779.54
2018-05-18T09:27:16.463Z,95774.97
2018-05-18T09:29:46.358Z,95777.95
2018-05-18T09:32:14.897Z,95778.34
2018-05-18T09:34:44.161Z,95783.65
2018-05-18T09:37:12.717Z,95786.58
2018-05-18T09:39:41.995Z,95784.23
2018-05-18T09:42:10.492Z,95788.68
2018-05-18T09:44:39.572Z,95789.48
2018-05-18T09:47:08.097Z,95786.94
2018-05-18T09:49:37.536Z,95789.22
2018-05-18T09:52:06.057Z,95788.59
2018-05-18T09:54:35.642Z,95784.11
2018-05-18T09:57:04.048Z,95782.59
2018-05-18T09:59:33.945Z,95777.73
2018-05-18T10:02:02.465Z,95768.36
2018-05-18T10:04:31.716Z,95777.62
2018-05-18T10:07:00.350Z,95767.48
2018-05-18T10:09:29.812Z,95760.26
2018-05-18T10:11:58.312Z,95754.59
2018-05-18T10:14:27.282Z,95753.83
2018-05-18T10:16:55.794Z,95749.02
2018-05-18T10:19:24.395Z,95752.34
2018-05-18T10:21:52.861Z,95747.80
2018-05-18T10:24:21.407Z,95748.57
2018-05-18T10:26:50.356Z,95743.75
2018-05-18T10:29:18.876Z,95740.32
2018-05-18T10:31:48.147Z,95739.39
2018-05-18T10:34:16.656Z,95735.77
2018-05-18T10:36:45.721Z,95736.27
2018-05-18T10:39:14.244Z,95737.52
2018-05-18T10:41:43.505Z,95745.47
2018-05-18T10:44:12.044Z,95739.41
2018-05-18T10:46:41.202Z,95748.75
2018-05-18T10:49:09.728Z,95751.67
2018-05-18T10:51:38.924Z,95749.84
2018-05-18T10:54:07.458Z,95747.67
2018-05-18T10:56:36.612Z,95741.84
2018-05-18T10:59:05.152Z,95740.69
2018-05-18T11:01:34.869Z,95728.25
2018-05-18T11:04:03.364Z,95727.62
2018-05-18T11:06:32.345Z,95725.64
2018-05-18T11:09:00.961Z,95730.41
2018-05-18T11:11:30.204Z,95738.66
2018-05-18T11:13:58.754Z,95732.45
2018-05-18T11:16:27.262Z,95728.85
2018-05-18T11:18:55.838Z,95719.92
2018-05-18T11:21:24.943Z,95723.78
2018-05-18T11:23:53.481Z,95727.53
2018-05-18T11:26:22.709Z,95722.38
2018-05-18T11:28:51.144Z,95720.28
2018-05-18T11:31:20.244Z,95713.41
2018-05-18T11:33:48.785Z,95711.29
2018-05-18T11:36:18.054Z,95705.62
2018-05-18T11:38:46.569Z,95700.91
2018-05-18T11:41:16.521Z,95697.01
2018-05-18T11:43:45.059Z,95694.59
2018-05-18T11:46:14.045Z,95692.45
2018-05-18T11:48:42.564Z,95687.06
2018-05-18T11:51:12.193Z,95688.30
2018-05-18T11:53:40.784Z,95685.11
2018-05-18T11:56:09.772Z,95680.73
2018-05-18T11:58:38.293Z,95682.36
2018-05-18T12:01:07.368Z,95679.22
2018-05-18T12:03:35.902Z,95675.55
2018-05-18T12:06:05.027Z,95671.59
2018-05-18T12:08:33.641Z,95678.51
2018-05-18T12:11:02.461Z,95675.34
2018-05-18T12:13:31.017Z,95677.88
2018-05-18T12:15:59.589Z,95668.41
2018-05-18T12:18:28.129Z,95670.82
2018-05-18T12:20:56.744Z,95665.28
2018-05-18T12:23:25.243Z,95664.91
2018-05-18T12:25:54.109Z,95660.86
2018-05-18T12:28:22.632Z,95665.31
2018-05-18T12:30:51.726Z,95664.26
2018-05-18T12:33:20.270Z,95664.95
2018-05-18T12:35:48.801Z,95658.09
2018-05-18T12:38:17.415Z,95655.87
2018-05-18T12:40:45.958Z,95650.15
2018-05-18T12:43:14.481Z,95649.10
2018-05-18T12:45:43.010Z,95656.73
2018-05-18T12:48:11.573Z,95652.66
2018-05-18T12:50:40.118Z,95662.81
2018-05-18T12:53:08.660Z,95662.72
2018-05-18T12:55:38.237Z,95657.76
2018-05-18T12:58:07.751Z,95657.86
2018-05-18T13:00:37.192Z,95661.58
2018-05-18T13:03:06.673Z,95653.54
2018-05-18T13:05:35.206Z,95648.68
2018-05-18T13:08:03.772Z,95638.09
2018-05-18T13:10:33.238Z,95635.77
2018-05-18T13:13:01.760Z,95634.36
2018-05-18T13:15:30.713Z,95632.45
2018-05-18T13:17:59.260Z,95628.08
2018-05-18T13:20:28.373Z,95631.80
2018-05-18T13:22:56.909Z,95621.91
2018-05-18T13:25:25.753Z,95624.70
2018-05-18T13:27:54.297Z,95623.22
2018-05-18T13:30:23.305Z,95615.20
2018-05-18T13:32:51.829Z,95617.67
2018-05-18T13:35:20.618Z,95606.81
2018-05-18T13:37:49.157Z,95610.42
2018-05-18T13:40:18.175Z,95607.22
2018-05-18T13:42:46.732Z,95610.41
2018-05-18T13:45:15.265Z,95604.69
2018-05-18T13:47:43.805Z,95604.60
2018-05-18T13:50:12.325Z,95594.42
2018-05-18T13:52:41.915Z,95596.23
2018-05-18T13:55:13.871Z,95592.02
2018-05-18T13:57:45.637Z,95590.28
2018-05-18T14:00:16.662Z,95588.94
2018-05-18T14:02:49.183Z,95585.47
2018-05-18T14:05:20.111Z,95587.53
2018-05-18T14:07:48.780Z,95586.65
2018-05-18T14:10:17.329Z,95586.36
2018-05-18T14:12:46.707Z,95585.92
2018-05-18T14:15:15.251Z,95589.38
2018-05-18T14:17:43.785Z,95584.55
2018-05-18T14:20:12.321Z,95581.57
2018-05-18T14:22:40.861Z,95579.13
2018-05-18T14:25:09.842Z,95578.97
2018-05-18T14:27:38.358Z,95574.60
2018-05-18T14:30:07.405Z,95573.63
2018-05-18T14:32:35.949Z,95575.98
2018-05-18T14:35:04.820Z,95568.44
2018-05-18T14:37:33.446Z,95569.05
2018-05-18T14:40:01.938Z,95565.48
2018-05-18T14:42:30.464Z,95568.05
2018-05-18T14:44:58.988Z,95566.95
2018-05-18T14:47:27.582Z,95570.01
2018-05-18T14:49:56.120Z,95574.13
2018-05-18T14:52:24.949Z,95561.43
2018-05-18T14:54:53.578Z,95564.83
2018-05-18T14:57:23.340Z,95560.73
2018-05-18T14:59:51.877Z,95560.58
2018-05-18T15:02:20.405Z,95565.69
2018-05-18T15:04:48.934Z,95559.58
2018-05-18T15:07:17.465Z,95560.80
2018-05-18T15:09:46.034Z,95559.91
2018-05-18T15:12:14.569Z,95560.01
2018-05-18T15:14:43.094Z,95557.19
2018-05-18T15:17:11.650Z,95556.73
2018-05-18T15:19:40.564Z,95557.85
2018-05-18T15:22:09.169Z,95553.41
2018-05-18T15:24:37.800Z,95551.64
2018-05-18T15:27:06.321Z,95554.11
2018-05-18T15:29:35.415Z,95553.42
2018-05-18T15:32:03.953Z,95547.15
2018-05-18T15:34:32.982Z,95537.27
2018-05-18T15:37:01.517Z,95536.51
2018-05-18T15:39:30.485Z,95537.21
2018-05-18T15:41:59.015Z,95538.53
2018-05-18T15:44:27.896Z,95534.92
2018-05-18T15:46:56.422Z,95537.53
2018-05-18T15:49:25.065Z,95536.30
2018-05-18T15:51:53.480Z,95542.40
2018-05-18T15:54:22.026Z,95540.14
2018-05-18T15:56:50.854Z,95542.84
2018-05-18T15:59:19.410Z,95541.58
2018-05-18T16:01:48.641Z,95543.42
2018-05-18T16:04:17.211Z,95540.20
2018-05-18T16:06:45.717Z,95541.53
2018-05-18T16:09:14.263Z,95541.57
2018-05-18T16:11:42.801Z,95544.02
2018-05-18T16:14:11.328Z,95548.05
2018-05-18T16:16:39.873Z,95548.88
2018-05-18T16:19:09.090Z,95548.77
2018-05-18T16:21:37.613Z,95547.75
2018-05-18T16:24:06.134Z,95555.98
2018-05-18T16:26:34.669Z,95556.34
2018-05-18T16:29:03.208Z,95554.81
2018-05-18T16:31:31.750Z,95557.84
2018-05-18T16:34:00.279Z,95556.56
2018-05-18T16:36:29.660Z,95557.44
2018-05-18T16:38:58.247Z,95561.66
2018-05-18T16:41:27.157Z,95556.05
2018-05-18T16:43:55.693Z,95555.75
2018-05-18T16:46:24.260Z,95557.62
2018-05-18T16:48:52.742Z,95552.84
2018-05-18T16:51:21.272Z,95555.95
2018-05-18T16:53:50.923Z,95562.25
2018-05-18T16:56:19.484Z,95562.80
2018-05-18T16:58:48.273Z,95561.88
2018-05-18T17:01:16.813Z,95561.03
2018-05-18T17:03:45.340Z,95560.73
2018-05-18T17:06:13.870Z,95562.16
2018-05-18T17:08:42.404Z,95566.11
2018-05-18T17:11:10.933Z,95566.56
2018-05-18T17:13:39.464Z,95563.24
2018-05-18T17:16:08.004Z,95566.33
2018-05-18T17:18:36.530Z,95570.13
2018-05-18T17:21:05.560Z,95569.70
2018-05-18T17:23:34.106Z,95573.23
2018-05-18T17:26:03.268Z,95573.83
2018-05-18T17:28:31.778Z,95572.63
2018-05-18T17:31:00.307Z,95572.08
2018-05-18T17:33:28.854Z,95573.25
2018-05-18T17:35:57.379Z,95575.63
2018-05-18T17:38:26.198Z,95578.27
2018-05-18T17:40:54.796Z,95573.42
2018-05-18T17:43:23.455Z,95580.11
2018-05-18T17:45:52.001Z,95582.59
2018-05-18T17:48:20.523Z,95584.12
2018-05-18T17:50:49.168Z,95586.89
2018-05-18T17:53:17.777Z,95583.81
2018-05-18T17:55:46.699Z,95589.91
2018-05-18T17:58:15.233Z,95587.20
2018-05-18T18:00:43.854Z,95590.34
2018-05-18T18:03:12.329Z,95590.83
2018-05-18T18:05:40.862Z,95590.06
2018-05-18T18:08:09.856Z,95586.71
2018-05-18T18:10:39.316Z,95593.91
2018-05-18T18:13:07.837Z,95587.75
2018-05-18T18:15:36.373Z,95592.42
2018-05-18T18:18:05.637Z,95596.56
2018-05-18T18:20:34.280Z,95596.56
2018-05-18T18:23:02.818Z,95601.27
2018-05-18T18:25:31.397Z,95602.09
2018-05-18T18:28:00.072Z,95599.49
2018-05-18T18:30:28.875Z,95602.02
2018-05-18T18:32:57.400Z,95596.69
2018-05-18T18:35:26.063Z,95602.27
2018-05-18T18:37:54.609Z,95608.49
2018-05-18T18:40:23.128Z,95610.56
2018-05-18T18:42:51.881Z,95611.48
2018-05-18T18:45:20.498Z,95617.99
2018-05-18T18:47:49.041Z,95619.74
2018-05-18T18:50:17.681Z,95621.39
2018-05-18T18:52:46.197Z,95622.03
2018-05-18T18:55:15.672Z,95623.38
2018-05-18T18:57:44.204Z,95626.55
2018-05-18T19:00:12.755Z,95627.30
2018-05-18T19:02:41.277Z,95627.08
2018-05-18T19:05:10.096Z,95628.49
2018-05-18T19:07:38.648Z,95628.05
2018-05-18T19:10:07.172Z,95623.59
2018-05-18T19:12:35.969Z,95625.48
2018-05-18T19:15:04.493Z,95631.59
2018-05-18T19:17:33.027Z,95630.08
2018-05-18T19:20:01.555Z,95632.66
2018-05-18T19:22:30.073Z,95634.44
2018-05-18T19:24:58.605Z,95635.48
2018-05-18T19:27:27.161Z,95639.75
2018-05-18T19:29:56.841Z,95637.75
2018-05-18T19:32:25.388Z,95639.39
2018-05-18T19:34:53.913Z,95642.69
2018-05-18T19:37:22.644Z,95643.66
2018-05-18T19:39:51.156Z,95647.73
2018-05-18T19:42:19.687Z,95649.05
2018-05-18T19:44:48.500Z,95645.14
2018-05-18T19:47:17.007Z,95647.39
2018-05-18T19:49:45.538Z,95654.49
2018-05-18T19:52:14.086Z,95661.30
2018-05-18T19:54:42.836Z,95663.18
2018-05-18T19:57:11.433Z,95664.11
2018-05-18T19:59:39.960Z,95663.66
2018-05-18T20:02:08.700Z,95668.05
2018-05-18T20:04:37.229Z,95674.34
2018-05-18T20:07:05.757Z,95676.70
2018-05-18T20:09:34.324Z,95673.67
2018-05-18T20:12:02.952Z,95675.49
2018-05-18T20:14:31.409Z,95676.69
2018-05-18T20:17:00.664Z,95680.67
2018-05-18T20:19:29.251Z,95678.72
2018-05-18T20:21:57.776Z,95684.12
2018-05-18T20:24:26.452Z,95682.65
2018-05-18T20:26:54.989Z,95685.78
2018-05-18T20:29:23.545Z,95684.77
2018-05-18T20:31:52.192Z,95686.27
2018-05-18T20:34:20.731Z,95683.98
2018-05-18T20:36:49.291Z,95684.94
2018-05-18T20:39:17.829Z,95678.77
2018-05-18T20:41:46.355Z,95680.48
2018-05-18T20:44:14.905Z,95685.95
2018-05-18T20:46:43.420Z,95689.34
2018-05-18T20:49:12.014Z,95689.92
2018-05-18T20:51:41.564Z,95690.52
2018-05-18T20:54:10.048Z,95689.83
2018-05-18T20:56:38.894Z,95690.17
2018-05-18T20:59:07.432Z,95691.73
2018-05-18T21:01:35.977Z,95691.69
2018-05-18T21:04:04.499Z,95690.47
2018-05-18T21:06:33.035Z,95691.33
2018-05-18T21:09:01.556Z,95694.11
2018-05-18T21:11:30.273Z,95696.94
2018-05-18T21:13:58.903Z,95698.29
2018-05-18T21:16:27.411Z,95696.30
2018-05-18T21:18:56.036Z,95695.48
2018-05-18T21:21:24.611Z,95697.41
2018-05-18T21:23:53.117Z,95701.01
2018-05-18T21:26:21.687Z,95701.98
2018-05-18T21:28:50.202Z,95703.90
2018-05-18T21:31:18.749Z,95706.58
2018-05-18T21:33:47.280Z,95702.34
2018-05-18T21:36:15.793Z,95710.78
2018-05-18T21:38:44.327Z,95711.06
2018-05-18T21:41:12.850Z,95710.13
2018-05-18T21:43:41.386Z,95711.45
2018-05-18T21:46:09.910Z,95714.72
2018-05-18T21:48:38.455Z,95713.82
2018-05-18T21:51:07.481Z,95714.87
2018-05-18T21:53:40.407Z,95720.17
2018-05-18T21:56:16.571Z,95720.28
2018-05-18T21:58:45.761Z,95724.02
2018-05-18T22:01:14.298Z,95724.53
2018-05-18T22:03:42.821Z,95727.98
2018-05-18T22:06:11.386Z,95731.36
2018-05-18T22:08:39.901Z,95726.31
2018-05-18T22:11:08.445Z,95727.71
2018-05-18T22:13:36.977Z,95727.31
2018-05-18T22:16:05.508Z,95727.46
2018-05-18T22:18:34.029Z,95726.16
2018-05-18T22:21:02.620Z,95728.20
2018-05-18T22:23:31.124Z,95728.78
2018-05-18T22:25:59.647Z,95725.94
2018-05-18T22:28:28.180Z,95730.42
2018-05-18T22:30:56.708Z,95723.70
2018-05-18T22:33:25.253Z,95720.94
2018-05-18T22:35:54.031Z,95719.66
2018-05-18T22:38:22.579Z,95716.48
2018-05-18T22:40:51.103Z,95714.72
2018-05-18T22:43:19.626Z,95717.02
2018-05-18T22:45:48.355Z,95715.39
2018-05-18T22:48:16.840Z,95716.33
2018-05-18T22:50:45.387Z,95717.84
2018-05-18T22:53:14.146Z,95711.48
2018-05-18T22:55:42.667Z,95709.91
2018-05-18T22:58:11.207Z,95712.41
2018-05-18T23:00:39.966Z,95708.66
2018-05-18T23:03:08.496Z,95711.92
2018-05-18T23:05:37.014Z,95708.03
2018-05-18T23:08:06.137Z,95709.02
2018-05-18T23:10:34.671Z,95715.89
2018-05-18T23:13:03.197Z,95715.44
2018-05-18T23:15:31.718Z,95712.38
2018-05-18T23:18:00.500Z,95715.66
2018-05-18T23:20:28.994Z,95725.33
2018-05-18T23:22:57.512Z,95729.67
2018-05-18T23:25:26.078Z,95726.64
2018-05-18T23:27:54.572Z,95727.59
2018-05-18T23:30:23.081Z,95721.45
2018-05-18T23:32:51.737Z,95721.20
2018-05-18T23:35:20.253Z,95717.25
2018-05-18T23:37:48.780Z,95720.54
2018-05-18T23:40:17.439Z,95725.81
2018-05-18T23:42:45.957Z,95719.27
2018-05-18T23:45:14.502Z,95717.70
2018-05-18T23:47:43.012Z,95711.20
2018-05-18T23:50:11.532Z,95705.62
2018-05-18T23:52:40.060Z,95706.12
2018-05-18T23:55:10.565Z,95698.16
2018-05-18T23:57:39.548Z,95695.31
